Česky Dansk Deutsch English Español Suomi Français Magyar Italiano Nederlands norsk Polski Português svenska Türkçe

 

Het Weer

Gassim (Saudi-Arabië)

01:00, 28 juli 2016 (GMT)

NWNNE
WE
SWSSE
Home            
Gassim Dawadmi Hail Hafr Al-Batin Al Qaysumah King Khaled International Airport Riyadh Rafha Madinah Kuwait Internationalairport Al-Jouf Jubail Naval Arar Al Ahsa Shaibah / Basrah Dammam-King Fahd International Airport Yenbo Taif Abadan Dhahran Wadi Al Dawasser Airport Makkah Bahrain International Airport

Om een weerknop op uw website of weblog te plaatsen, copieer onderstaande code en plak die in uw pagina. In het eerste vakje staat HTML-code, in het tweede vakje UBB-code.


Add to Google

Details

Wind speed:1 bf, 1 kn, 0.5 m/s, 1.2 miles/h, 1.9 km/h
Wind direction:NNE, 030°
Visibility:Greater than 10000 m, 10 km, 32800 ft, 6.2 miles
Clouds:CAVOC
Temperature:30°C, 86°F
Gefühlte Temperatur:28°C, 83°F
Dew-point:9°C, 48°F
Atmospheric pressure:1004 hPa, 753.1 mmHg, 29.65 inHg, 0.991 atm
Relative humidity:27.1 %
METAR:OEGS 280100Z 03001KT CAVOK 30/09 Q1004

Snelkoppelingen

Actuele weersinformatie van de hele wereld. Voeg locaties toe met het plus (+) symbool. Deze snelkoppelingen kunnen worden toegevoegd aan Google.

Lid van de Technetium groep

website free tracking
StatCounter NetStat W3C Validator

17-04-2021 05:13:36
astro.technetium.be money.technetium.be phote.technetium.be tafeltennistafel.technetium.be www.ligfiets.net